Time;durP1;ratioP1;P1;durP2;ratioP2;P2;SDS_P1;SDS_P2;PMS_P1;PMS_P2;Temp;Humidity;BMP_temperature;BMP_pressure;BME280_temperature;BME280_humidity;BME280_pressure;Samples;Min_cycle;Max_cycle;Signal;HPM_P1;HPM_P2
2023/01/22 00:00:38;;;;;;;20.63;13.13;;;;;;;;;;5012240;28;21272;-58
2023/01/22 00:03:06;;;;;;;17.37;11.90;;;;;;;;;;5012881;28;20214;-59
2023/01/22 00:05:33;;;;;;;18.10;11.87;;;;;;;;;;5015306;28;20205;-57
2023/01/22 00:08:00;;;;;;;19.23;12.70;;;;;;;;;;5012562;28;20204;-59
2023/01/22 00:10:27;;;;;;;14.90;10.57;;;;;;;;;;5012786;28;20235;-58
2023/01/22 00:12:54;;;;;;;13.37;10.23;;;;;;;;;;5017770;28;20203;-58
2023/01/22 00:15:21;;;;;;;19.33;12.33;;;;;;;;;;5015650;28;20209;-58
2023/01/22 00:17:49;;;;;;;20.40;13.73;;;;;;;;;;5016052;28;20223;-57
2023/01/22 00:20:17;;;;;;;19.97;13.20;;;;;;;;;;5015060;28;20426;-60
2023/01/22 00:22:44;;;;;;;12.87;10.23;;;;;;;;;;5012726;28;20417;-59
2023/01/22 00:25:12;;;;;;;13.47;9.73;;;;;;;;;;5014664;28;20205;-59
2023/01/22 00:27:40;;;;;;;13.57;10.00;;;;;;;;;;5019039;28;20193;-58
2023/01/22 00:30:08;;;;;;;13.10;10.20;;;;;;;;;;5018384;28;20235;-59
2023/01/22 00:32:35;;;;;;;13.63;9.63;;;;;;;;;;5010912;28;20209;-59
2023/01/22 00:35:04;;;;;;;14.53;10.33;;;;;;;;;;5013030;28;20208;-59
2023/01/22 00:37:31;;;;;;;15.47;10.50;;;;;;;;;;5009018;28;20213;-59
2023/01/22 00:39:58;;;;;;;12.97;10.03;;;;;;;;;;5009076;28;20507;-59
2023/01/22 00:42:26;;;;;;;14.30;10.30;;;;;;;;;;5011973;28;20299;-58
2023/01/22 00:44:53;;;;;;;14.50;10.17;;;;;;;;;;5013762;28;20412;-59
2023/01/22 00:47:20;;;;;;;15.73;10.87;;;;;;;;;;5019353;28;20192;-56
2023/01/22 00:49:47;;;;;;;17.07;11.33;;;;;;;;;;5010396;28;20207;-58
2023/01/22 00:52:15;;;;;;;16.30;11.77;;;;;;;;;;5012426;28;20211;-57
2023/01/22 00:54:44;;;;;;;14.47;11.20;;;;;;;;;;5011258;28;20205;-59
2023/01/22 00:57:11;;;;;;;14.60;11.43;;;;;;;;;;5008318;28;20219;-59
2023/01/22 00:59:38;;;;;;;17.80;12.50;;;;;;;;;;5012608;28;20211;-58
2023/01/22 01:02:06;;;;;;;17.07;11.13;;;;;;;;;;5010228;28;20197;-58
2023/01/22 01:04:33;;;;;;;15.40;11.73;;;;;;;;;;5011762;28;20573;-57
2023/01/22 01:07:00;;;;;;;18.13;12.80;;;;;;;;;;5009872;28;20196;-60
2023/01/22 01:09:28;;;;;;;16.83;12.20;;;;;;;;;;5011095;28;20228;-56
2023/01/22 01:11:55;;;;;;;17.10;12.37;;;;;;;;;;5011071;28;20243;-59
2023/01/22 01:14:22;;;;;;;18.33;13.33;;;;;;;;;;5011995;28;20215;-58
2023/01/22 01:16:50;;;;;;;17.60;13.13;;;;;;;;;;5008831;28;20291;-58
2023/01/22 01:19:19;;;;;;;15.63;11.73;;;;;;;;;;5010732;28;20222;-59
2023/01/22 01:21:46;;;;;;;16.90;12.40;;;;;;;;;;5008590;28;20300;-59
2023/01/22 01:24:13;;;;;;;17.73;12.53;;;;;;;;;;5010913;28;20296;-59
2023/01/22 01:26:42;;;;;;;20.50;13.20;;;;;;;;;;5010221;28;20436;-59
2023/01/22 01:29:11;;;;;;;17.57;12.30;;;;;;;;;;5011681;28;20208;-59
2023/01/22 01:31:38;;;;;;;17.77;12.90;;;;;;;;;;5009408;28;20243;-59
2023/01/22 01:34:06;;;;;;;16.83;12.23;;;;;;;;;;5009082;28;20209;-59
2023/01/22 01:36:33;;;;;;;17.97;12.97;;;;;;;;;;5009642;28;20342;-59
2023/01/22 01:39:00;;;;;;;16.63;12.80;;;;;;;;;;5011773;28;20196;-58
2023/01/22 01:41:27;;;;;;;17.27;12.80;;;;;;;;;;5006602;28;20529;-59
2023/01/22 01:44:09;;;;;;;18.80;13.33;;;;;;;;;;5015440;28;20204;-56
2023/01/22 01:46:37;;;;;;;17.93;12.93;;;;;;;;;;5015151;28;20204;-58
2023/01/22 01:49:04;;;;;;;17.53;13.03;;;;;;;;;;5013032;28;20200;-59
2023/01/22 01:51:33;;;;;;;17.50;12.77;;;;;;;;;;5018065;28;20220;-61
2023/01/22 01:54:01;;;;;;;16.53;12.53;;;;;;;;;;5019399;28;20224;-59
2023/01/22 01:56:30;;;;;;;18.47;13.33;;;;;;;;;;5019536;28;20208;-60
2023/01/22 01:58:59;;;;;;;16.60;12.50;;;;;;;;;;5009403;28;20224;-60
2023/01/22 02:01:28;;;;;;;17.73;12.63;;;;;;;;;;5009924;28;20207;-60
2023/01/22 02:03:55;;;;;;;17.20;12.67;;;;;;;;;;5005591;28;20201;-59
2023/01/22 02:06:22;;;;;;;18.67;13.60;;;;;;;;;;5011001;28;20200;-58
2023/01/22 02:08:52;;;;;;;17.37;12.20;;;;;;;;;;5011433;28;20232;-59
2023/01/22 02:11:20;;;;;;;15.70;12.17;;;;;;;;;;5007090;28;20225;-59
2023/01/22 02:13:50;;;;;;;15.60;12.03;;;;;;;;;;5011944;28;20236;-60
2023/01/22 02:16:17;;;;;;;14.50;11.00;;;;;;;;;;5011568;28;20210;-60
2023/01/22 02:18:45;;;;;;;16.97;12.17;;;;;;;;;;5003703;28;20209;-60
2023/01/22 02:21:30;;;;;;;16.63;11.83;;;;;;;;;;5008613;28;20197;-60
2023/01/22 02:23:57;;;;;;;17.63;12.53;;;;;;;;;;5007435;28;20219;-60
2023/01/22 02:26:24;;;;;;;20.97;12.97;;;;;;;;;;5010064;28;20281;-60
2023/01/22 02:28:51;;;;;;;18.33;12.87;;;;;;;;;;5009448;28;20214;-59
2023/01/22 02:31:18;;;;;;;15.10;11.20;;;;;;;;;;5009201;28;20463;-58
2023/01/22 02:33:46;;;;;;;15.70;11.80;;;;;;;;;;5011385;28;20462;-59
2023/01/22 02:36:13;;;;;;;20.07;12.87;;;;;;;;;;5011584;28;20223;-60
2023/01/22 02:38:41;;;;;;;21.03;13.80;;;;;;;;;;5010883;28;20215;-60
2023/01/22 02:41:09;;;;;;;20.23;13.97;;;;;;;;;;5017006;28;20284;-60
2023/01/22 02:43:36;;;;;;;19.97;13.17;;;;;;;;;;5013503;28;20204;-59
2023/01/22 02:46:03;;;;;;;14.97;11.37;;;;;;;;;;5013766;28;20215;-59
2023/01/22 02:48:30;;;;;;;15.63;12.00;;;;;;;;;;5015237;28;20204;-59
2023/01/22 02:50:57;;;;;;;14.33;11.37;;;;;;;;;;5008931;28;20231;-59
2023/01/22 02:53:24;;;;;;;13.77;11.60;;;;;;;;;;5007615;28;20284;-60
2023/01/22 02:55:53;;;;;;;15.80;12.10;;;;;;;;;;5013299;28;20219;-59
2023/01/22 02:58:20;;;;;;;15.27;11.33;;;;;;;;;;5006366;28;20196;-59
2023/01/22 03:00:47;;;;;;;15.40;11.57;;;;;;;;;;5013510;28;20200;-60
2023/01/22 03:03:15;;;;;;;14.40;11.03;;;;;;;;;;5014444;28;20212;-60
2023/01/22 03:05:44;;;;;;;15.23;12.03;;;;;;;;;;5013473;28;20201;-60
2023/01/22 03:08:11;;;;;;;18.43;13.07;;;;;;;;;;5010416;28;20270;-59
2023/01/22 03:10:38;;;;;;;18.33;13.43;;;;;;;;;;5010986;28;20200;-59
2023/01/22 03:21:21;;;;;;;12.67;10.23;;;;;;;;;;5009617;28;20261;-60
2023/01/22 03:23:49;;;;;;;16.23;11.03;;;;;;;;;;5004753;28;20204;-59
2023/01/22 03:26:17;;;;;;;14.20;10.40;;;;;;;;;;5004643;28;20204;-60
2023/01/22 03:28:45;;;;;;;14.10;10.97;;;;;;;;;;5014169;28;20204;-60
2023/01/22 03:31:13;;;;;;;12.90;10.77;;;;;;;;;;5015548;28;20265;-58
2023/01/22 03:33:40;;;;;;;14.43;10.97;;;;;;;;;;5016632;28;20226;-60
2023/01/22 03:36:09;;;;;;;12.43;10.10;;;;;;;;;;5014888;28;20200;-60
2023/01/22 03:38:36;;;;;;;13.47;10.73;;;;;;;;;;5016351;28;20212;-60
2023/01/22 03:41:04;;;;;;;13.60;10.50;;;;;;;;;;5013802;28;20200;-60
2023/01/22 03:43:31;;;;;;;13.00;9.27;;;;;;;;;;5009365;28;20204;-59
2023/01/22 03:46:04;;;;;;;13.07;9.77;;;;;;;;;;5014181;28;20196;-60
2023/01/22 03:48:31;;;;;;;12.63;10.13;;;;;;;;;;5010965;28;20200;-59
2023/01/22 03:51:04;;;;;;;12.57;10.13;;;;;;;;;;5006713;28;20208;-59
2023/01/22 03:53:31;;;;;;;11.83;9.90;;;;;;;;;;5017756;28;20223;-60
2023/01/22 03:55:59;;;;;;;13.30;10.50;;;;;;;;;;5014525;28;20204;-60
2023/01/22 03:58:26;;;;;;;13.90;11.10;;;;;;;;;;5012789;28;20204;-60
2023/01/22 04:00:56;;;;;;;12.30;10.10;;;;;;;;;;5013044;28;20200;-60
2023/01/22 04:03:25;;;;;;;12.70;10.10;;;;;;;;;;5014745;28;20206;-60
2023/01/22 04:05:52;;;;;;;14.77;11.13;;;;;;;;;;5012809;28;20204;-60
2023/01/22 04:08:19;;;;;;;12.93;10.47;;;;;;;;;;5013906;28;20228;-60
2023/01/22 04:10:46;;;;;;;11.53;9.70;;;;;;;;;;5010755;28;20204;-60
2023/01/22 04:13:13;;;;;;;11.17;9.50;;;;;;;;;;5016108;28;20228;-60
2023/01/22 04:15:43;;;;;;;11.13;9.43;;;;;;;;;;5015599;28;20204;-59
2023/01/22 04:18:10;;;;;;;12.33;10.10;;;;;;;;;;5010005;28;20240;-60
2023/01/22 04:20:38;;;;;;;11.43;9.50;;;;;;;;;;5014750;28;20212;-60
2023/01/22 04:23:05;;;;;;;12.10;9.90;;;;;;;;;;5010327;28;20208;-60
2023/01/22 04:25:33;;;;;;;10.73;9.43;;;;;;;;;;5018694;28;20507;-60
2023/01/22 04:28:00;;;;;;;10.70;9.60;;;;;;;;;;5013223;28;20197;-60
2023/01/22 04:30:27;;;;;;;12.93;10.43;;;;;;;;;;5013247;28;20208;-59
2023/01/22 04:32:54;;;;;;;9.70;8.70;;;;;;;;;;5011057;28;20352;-60
2023/01/22 04:35:24;;;;;;;9.90;8.70;;;;;;;;;;5013635;28;20212;-59
2023/01/22 04:37:52;;;;;;;10.80;9.07;;;;;;;;;;5013286;28;20228;-59
2023/01/22 04:40:20;;;;;;;11.27;9.53;;;;;;;;;;5014558;28;20208;-60
2023/01/22 04:42:47;;;;;;;11.47;9.67;;;;;;;;;;5010018;28;20200;-59
2023/01/22 04:45:14;;;;;;;10.57;9.10;;;;;;;;;;5010761;28;20427;-60
2023/01/22 04:47:42;;;;;;;10.77;9.23;;;;;;;;;;5011255;28;20196;-59
2023/01/22 04:50:11;;;;;;;10.63;9.07;;;;;;;;;;5007998;28;20220;-59
2023/01/22 04:52:38;;;;;;;10.23;8.60;;;;;;;;;;5012465;28;20207;-60
2023/01/22 04:55:08;;;;;;;10.17;8.87;;;;;;;;;;5012683;28;20188;-60
2023/01/22 04:57:35;;;;;;;9.50;8.27;;;;;;;;;;5016236;28;20204;-60
2023/01/22 05:00:03;;;;;;;11.87;9.87;;;;;;;;;;5012961;28;20224;-59
2023/01/22 05:02:30;;;;;;;10.90;8.87;;;;;;;;;;5014493;28;20196;-59
2023/01/22 05:04:57;;;;;;;10.17;8.60;;;;;;;;;;5012784;28;20204;-59
2023/01/22 05:07:24;;;;;;;10.80;9.00;;;;;;;;;;5009804;28;20300;-59
2023/01/22 05:09:51;;;;;;;10.43;8.80;;;;;;;;;;5015662;28;20232;-60
2023/01/22 05:12:20;;;;;;;9.37;8.27;;;;;;;;;;5014960;28;20235;-59
2023/01/22 05:14:47;;;;;;;9.50;8.50;;;;;;;;;;5014525;28;20196;-59
2023/01/22 05:17:14;;;;;;;10.33;8.97;;;;;;;;;;5009732;28;20336;-60
2023/01/22 05:19:41;;;;;;;9.87;8.57;;;;;;;;;;5008053;28;20204;-59
2023/01/22 05:22:08;;;;;;;9.97;8.70;;;;;;;;;;5010678;28;20199;-60
2023/01/22 05:24:35;;;;;;;9.73;8.70;;;;;;;;;;5008138;28;20203;-60
2023/01/22 05:27:03;;;;;;;10.77;9.07;;;;;;;;;;5010662;28;20275;-58
2023/01/22 05:29:31;;;;;;;8.80;7.87;;;;;;;;;;5007439;28;20230;-58
2023/01/22 05:31:58;;;;;;;10.80;8.70;;;;;;;;;;5005345;28;20237;-59
2023/01/22 05:34:25;;;;;;;10.13;8.37;;;;;;;;;;5010472;28;20210;-60
2023/01/22 05:36:53;;;;;;;9.20;8.13;;;;;;;;;;5012412;28;20216;-59
2023/01/22 05:39:20;;;;;;;12.03;9.47;;;;;;;;;;5012616;28;20210;-60
2023/01/22 05:41:47;;;;;;;9.73;8.73;;;;;;;;;;5011372;28;20192;-60
2023/01/22 05:44:14;;;;;;;9.80;8.80;;;;;;;;;;5009079;28;20205;-60
2023/01/22 05:46:43;;;;;;;9.40;8.40;;;;;;;;;;5012000;28;20209;-60
2023/01/22 05:49:10;;;;;;;9.30;8.10;;;;;;;;;;5007943;28;20406;-61
2023/01/22 05:51:37;;;;;;;9.60;8.60;;;;;;;;;;5007875;28;20213;-60
2023/01/22 05:54:04;;;;;;;10.13;8.60;;;;;;;;;;5011710;28;20415;-60
2023/01/22 05:56:32;;;;;;;9.57;8.20;;;;;;;;;;5013372;28;20206;-60
2023/01/22 05:58:59;;;;;;;9.40;8.40;;;;;;;;;;5010513;28;20211;-59
2023/01/22 06:01:26;;;;;;;11.57;9.37;;;;;;;;;;5006613;28;20200;-59
2023/01/22 06:03:54;;;;;;;9.63;8.63;;;;;;;;;;5007876;28;20205;-59
2023/01/22 06:06:22;;;;;;;9.53;8.47;;;;;;;;;;5012215;28;20310;-60
2023/01/22 06:08:51;;;;;;;9.40;8.37;;;;;;;;;;5012921;28;20240;-60
2023/01/22 06:11:18;;;;;;;9.30;8.30;;;;;;;;;;5010911;28;20204;-60
2023/01/22 06:13:46;;;;;;;10.13;8.77;;;;;;;;;;5014136;28;20228;-58
2023/01/22 06:16:13;;;;;;;11.33;8.87;;;;;;;;;;5009738;28;20223;-59
2023/01/22 06:18:40;;;;;;;10.10;8.43;;;;;;;;;;5005815;28;20209;-58
2023/01/22 06:21:09;;;;;;;9.57;7.87;;;;;;;;;;5018985;28;20191;-60
2023/01/22 06:23:36;;;;;;;9.03;8.07;;;;;;;;;;5010730;28;20200;-59
2023/01/22 06:26:04;;;;;;;9.60;8.60;;;;;;;;;;5014268;28;20201;-60
2023/01/22 06:28:31;;;;;;;9.63;8.60;;;;;;;;;;5015000;28;20205;-57
2023/01/22 06:31:04;;;;;;;10.73;8.73;;;;;;;;;;5020732;28;20199;-58
2023/01/22 06:33:31;;;;;;;9.30;8.30;;;;;;;;;;5011179;28;20230;-59
2023/01/22 06:35:58;;;;;;;9.23;8.23;;;;;;;;;;5012967;28;20205;-59
2023/01/22 06:38:26;;;;;;;10.53;9.23;;;;;;;;;;5012515;28;20199;-59
2023/01/22 06:40:53;;;;;;;9.40;8.43;;;;;;;;;;5015914;28;20200;-59
2023/01/22 06:43:21;;;;;;;10.43;9.30;;;;;;;;;;5009945;28;20272;-59
2023/01/22 06:45:48;;;;;;;11.10;8.97;;;;;;;;;;5013078;28;20200;-60
2023/01/22 06:48:15;;;;;;;9.97;8.93;;;;;;;;;;5016094;28;20200;-60
2023/01/22 06:50:42;;;;;;;9.70;8.70;;;;;;;;;;5006485;28;20204;-59
2023/01/22 06:53:09;;;;;;;11.13;9.27;;;;;;;;;;5010656;28;20224;-56
2023/01/22 06:55:39;;;;;;;9.80;8.80;;;;;;;;;;5010887;28;20267;-57
2023/01/22 06:58:06;;;;;;;11.43;9.57;;;;;;;;;;5013972;28;20196;-58
2023/01/22 07:00:33;;;;;;;10.63;9.17;;;;;;;;;;5012596;28;20207;-59
2023/01/22 07:03:00;;;;;;;10.03;9.03;;;;;;;;;;5011463;28;20208;-58
2023/01/22 07:05:27;;;;;;;12.33;9.43;;;;;;;;;;5015996;28;20227;-59
2023/01/22 07:07:55;;;;;;;11.73;10.20;;;;;;;;;;5008708;28;20197;-59
2023/01/22 07:10:22;;;;;;;11.53;10.20;;;;;;;;;;5012206;28;20473;-59
2023/01/22 07:12:54;;;;;;;11.33;9.83;;;;;;;;;;5014286;28;20239;-59
2023/01/22 07:15:21;;;;;;;14.07;11.50;;;;;;;;;;5010783;28;20204;-59
2023/01/22 07:17:51;;;;;;;11.63;10.43;;;;;;;;;;5017561;28;20215;-59
2023/01/22 07:20:18;;;;;;;11.33;10.17;;;;;;;;;;5009657;28;20255;-59
2023/01/22 07:22:45;;;;;;;12.57;10.60;;;;;;;;;;5014967;28;20203;-59
2023/01/22 07:25:12;;;;;;;13.13;11.30;;;;;;;;;;5017708;28;20211;-59
2023/01/22 07:27:39;;;;;;;13.07;10.63;;;;;;;;;;5011138;28;20200;-59
2023/01/22 07:30:09;;;;;;;14.30;12.20;;;;;;;;;;5012202;28;20208;-58
2023/01/22 07:32:36;;;;;;;14.10;12.57;;;;;;;;;;5010231;28;20221;-59
2023/01/22 07:35:03;;;;;;;15.07;13.27;;;;;;;;;;5014220;28;20215;-57
2023/01/22 07:37:30;;;;;;;14.17;11.87;;;;;;;;;;5013105;28;20247;-60
2023/01/22 07:39:57;;;;;;;14.60;12.07;;;;;;;;;;5013104;28;20508;-58
2023/01/22 07:42:24;;;;;;;13.07;11.67;;;;;;;;;;5010702;28;21755;-59
2023/01/22 07:44:52;;;;;;;13.37;11.27;;;;;;;;;;5017169;28;20230;-60
2023/01/22 07:47:20;;;;;;;13.87;11.93;;;;;;;;;;5017198;28;20208;-59
2023/01/22 07:49:47;;;;;;;14.40;11.57;;;;;;;;;;5010443;28;20237;-60
2023/01/22 07:52:14;;;;;;;15.47;13.47;;;;;;;;;;5013321;28;20212;-59
2023/01/22 07:54:41;;;;;;;15.53;13.30;;;;;;;;;;5007103;28;20215;-59
2023/01/22 07:57:13;;;;;;;13.70;12.07;;;;;;;;;;5006304;28;20210;-59
2023/01/22 07:59:40;;;;;;;15.10;13.37;;;;;;;;;;5008433;28;20286;-59
2023/01/22 08:02:09;;;;;;;15.23;12.97;;;;;;;;;;5006352;28;20201;-59
2023/01/22 08:04:38;;;;;;;15.50;12.57;;;;;;;;;;5009291;28;20449;-60
2023/01/22 08:07:05;;;;;;;15.03;13.40;;;;;;;;;;5012870;28;20204;-59
2023/01/22 08:09:32;;;;;;;14.60;12.97;;;;;;;;;;5002408;28;20243;-60
2023/01/22 08:11:59;;;;;;;14.73;13.13;;;;;;;;;;5008311;28;20305;-59
2023/01/22 08:14:26;;;;;;;14.97;12.60;;;;;;;;;;5008679;28;20224;-60
2023/01/22 08:16:53;;;;;;;15.37;13.67;;;;;;;;;;5008823;28;20200;-59
2023/01/22 08:19:20;;;;;;;15.80;13.90;;;;;;;;;;5007896;28;20200;-59
2023/01/22 08:21:49;;;;;;;15.27;12.47;;;;;;;;;;5007557;28;20687;-60
2023/01/22 08:24:16;;;;;;;15.93;13.80;;;;;;;;;;5007107;28;20208;-59
2023/01/22 08:26:44;;;;;;;17.83;13.77;;;;;;;;;;5008824;28;20646;-59
2023/01/22 08:29:11;;;;;;;15.17;13.57;;;;;;;;;;5009526;28;20614;-59
2023/01/22 08:31:38;;;;;;;16.20;13.87;;;;;;;;;;5008065;28;20308;-59
2023/01/22 08:34:05;;;;;;;13.30;11.90;;;;;;;;;;5013491;28;20221;-60
2023/01/22 08:36:32;;;;;;;12.57;11.27;;;;;;;;;;5009466;28;20208;-60
2023/01/22 08:39:01;;;;;;;20.43;15.97;;;;;;;;;;5012387;28;20295;-59
2023/01/22 08:41:28;;;;;;;23.83;18.00;;;;;;;;;;5006179;28;20208;-60
2023/01/22 08:43:55;;;;;;;19.33;14.93;;;;;;;;;;5007302;28;20196;-59
2023/01/22 08:46:22;;;;;;;17.00;14.47;;;;;;;;;;5009615;28;20235;-59
2023/01/22 08:48:49;;;;;;;17.53;15.33;;;;;;;;;;5003994;28;20208;-59
2023/01/22 08:51:17;;;;;;;14.50;13.00;;;;;;;;;;5010484;28;20269;-59
2023/01/22 08:53:44;;;;;;;12.87;11.33;;;;;;;;;;5008708;28;20318;-57
2023/01/22 08:56:12;;;;;;;13.53;11.73;;;;;;;;;;5011094;28;20204;-59
2023/01/22 08:58:39;;;;;;;14.97;13.30;;;;;;;;;;5009184;28;20204;-59
2023/01/22 09:01:06;;;;;;;14.53;12.07;;;;;;;;;;5010569;28;20212;-60
2023/01/22 09:03:33;;;;;;;15.77;14.07;;;;;;;;;;5004403;28;20201;-60
2023/01/22 09:06:01;;;;;;;13.83;12.43;;;;;;;;;;5007951;28;20216;-60
2023/01/22 09:08:28;;;;;;;14.27;12.77;;;;;;;;;;5005176;28;20209;-59
2023/01/22 09:10:55;;;;;;;13.00;11.60;;;;;;;;;;5003859;28;20220;-59
2023/01/22 09:13:23;;;;;;;12.53;11.23;;;;;;;;;;5009441;28;20236;-59
2023/01/22 09:15:50;;;;;;;17.00;13.80;;;;;;;;;;5013087;28;20524;-60
2023/01/22 09:18:18;;;;;;;18.87;14.97;;;;;;;;;;5012944;28;20215;-59
2023/01/22 09:20:45;;;;;;;28.83;18.97;;;;;;;;;;5018100;28;20200;-60
2023/01/22 09:23:12;;;;;;;36.07;21.93;;;;;;;;;;5007331;28;20289;-60
2023/01/22 09:25:40;;;;;;;46.43;26.87;;;;;;;;;;5013467;28;20207;-60
2023/01/22 09:28:08;;;;;;;37.87;23.77;;;;;;;;;;5008071;28;20212;-58
2023/01/22 09:30:38;;;;;;;19.00;12.73;;;;;;;;;;5007785;28;20211;-59
2023/01/22 09:33:05;;;;;;;14.63;12.67;;;;;;;;;;5012866;28;20216;-58
2023/01/22 09:35:32;;;;;;;12.80;11.47;;;;;;;;;;5017302;28;20416;-59
2023/01/22 09:38:00;;;;;;;14.93;11.60;;;;;;;;;;5012508;28;20204;-60
2023/01/22 09:40:28;;;;;;;13.77;11.83;;;;;;;;;;5011928;28;20223;-60
2023/01/22 09:43:00;;;;;;;13.50;11.87;;;;;;;;;;5010898;28;20413;-59
2023/01/22 09:45:28;;;;;;;12.67;11.37;;;;;;;;;;5011935;28;20208;-60
2023/01/22 09:47:59;;;;;;;13.10;11.07;;;;;;;;;;5006949;28;20197;-58
2023/01/22 09:50:27;;;;;;;11.03;9.93;;;;;;;;;;5008857;28;20289;-59
2023/01/22 09:52:56;;;;;;;11.80;10.60;;;;;;;;;;5010551;28;20295;-59
2023/01/22 09:55:24;;;;;;;12.00;10.80;;;;;;;;;;5004287;28;20479;-60
2023/01/22 09:57:55;;;;;;;13.87;12.33;;;;;;;;;;5009253;28;20230;-60
2023/01/22 10:00:24;;;;;;;14.27;12.77;;;;;;;;;;5007347;28;20192;-59
2023/01/22 10:02:52;;;;;;;14.90;12.93;;;;;;;;;;5003579;28;20505;-60
2023/01/22 10:05:24;;;;;;;14.60;12.97;;;;;;;;;;5010590;28;20203;-60
2023/01/22 10:07:53;;;;;;;14.03;10.93;;;;;;;;;;5008890;28;20377;-60
2023/01/22 10:10:21;;;;;;;12.00;10.80;;;;;;;;;;5006060;28;20248;-59
2023/01/22 10:12:51;;;;;;;11.63;10.43;;;;;;;;;;5007126;28;20231;-60
2023/01/22 10:15:21;;;;;;;11.27;10.17;;;;;;;;;;5006129;28;20208;-60
2023/01/22 10:17:48;;;;;;;12.87;11.57;;;;;;;;;;5006743;28;20207;-60
2023/01/22 10:20:17;;;;;;;14.33;12.57;;;;;;;;;;5008656;28;20238;-61
2023/01/22 10:22:47;;;;;;;14.53;13.03;;;;;;;;;;5012833;28;20258;-60
2023/01/22 10:25:16;;;;;;;14.23;12.67;;;;;;;;;;5009346;28;20310;-60
2023/01/22 10:27:45;;;;;;;12.53;11.33;;;;;;;;;;5006508;28;20208;-60
2023/01/22 10:30:18;;;;;;;12.13;10.93;;;;;;;;;;5007018;28;20204;-59
2023/01/22 10:32:45;;;;;;;11.20;10.00;;;;;;;;;;5002058;28;20204;-60
2023/01/22 10:35:17;;;;;;;11.80;10.60;;;;;;;;;;5006175;28;20411;-59
2023/01/22 10:37:46;;;;;;;11.20;10.10;;;;;;;;;;5011897;28;20201;-58
2023/01/22 10:40:24;;;;;;;13.60;12.20;;;;;;;;;;5018210;28;20212;-59
2023/01/22 10:43:01;;;;;;;12.50;11.23;;;;;;;;;;5007195;28;20215;-58
2023/01/22 10:45:28;;;;;;;13.70;12.30;;;;;;;;;;5009306;28;20421;-60
2023/01/22 10:48:04;;;;;;;11.30;10.20;;;;;;;;;;5009044;28;20197;-57
2023/01/22 10:50:31;;;;;;;10.97;9.87;;;;;;;;;;5010931;28;20196;-58
2023/01/22 10:52:59;;;;;;;11.07;9.97;;;;;;;;;;5009431;28;20196;-59
2023/01/22 10:55:28;;;;;;;12.27;11.07;;;;;;;;;;5004939;28;20359;-60
2023/01/22 10:57:57;;;;;;;11.67;9.53;;;;;;;;;;5009495;28;20204;-60
2023/01/22 11:00:27;;;;;;;12.30;10.90;;;;;;;;;;5006926;28;20200;-59
2023/01/22 11:02:55;;;;;;;12.23;10.93;;;;;;;;;;5006163;28;20504;-59
2023/01/22 11:05:23;;;;;;;12.23;11.00;;;;;;;;;;5011868;28;20205;-59
2023/01/22 11:07:52;;;;;;;11.67;10.47;;;;;;;;;;5012425;28;20207;-60
2023/01/22 11:10:24;;;;;;;10.50;9.40;;;;;;;;;;5006210;28;20236;-59
2023/01/22 11:12:54;;;;;;;10.80;9.80;;;;;;;;;;5005775;28;20223;-58
2023/01/22 11:15:23;;;;;;;12.93;11.63;;;;;;;;;;5006290;28;20424;-58
2023/01/22 11:17:51;;;;;;;10.73;9.63;;;;;;;;;;5007608;28;20197;-59
2023/01/22 11:20:22;;;;;;;10.50;9.40;;;;;;;;;;5007549;28;20223;-60
2023/01/22 11:22:54;;;;;;;10.50;9.60;;;;;;;;;;5006764;28;20539;-60
2023/01/22 11:25:22;;;;;;;10.37;9.43;;;;;;;;;;5004380;28;20291;-59
2023/01/22 11:27:55;;;;;;;10.63;9.63;;;;;;;;;;5002864;28;20295;-60
2023/01/22 11:30:37;;;;;;;10.13;9.13;;;;;;;;;;5006482;28;20305;-60
2023/01/22 11:33:09;;;;;;;10.00;9.00;;;;;;;;;;5006687;28;20234;-60
2023/01/22 11:35:42;;;;;;;9.10;8.20;;;;;;;;;;5017131;28;20227;-59
2023/01/22 11:38:16;;;;;;;9.40;8.50;;;;;;;;;;5003962;28;20204;-58
2023/01/22 11:40:52;;;;;;;9.87;8.97;;;;;;;;;;5004000;28;20220;-59
2023/01/22 11:43:23;;;;;;;10.17;9.17;;;;;;;;;;5001648;28;20200;-60
2023/01/22 11:46:05;;;;;;;10.10;9.10;;;;;;;;;;5010714;28;20553;-59
2023/01/22 11:48:40;;;;;;;12.93;11.43;;;;;;;;;;5008856;28;20203;-59
2023/01/22 11:51:11;;;;;;;19.30;14.20;;;;;;;;;;5018997;28;20202;-59
2023/01/22 11:53:48;;;;;;;13.30;10.77;;;;;;;;;;5008510;28;20212;-59
2023/01/22 11:56:23;;;;;;;12.00;10.60;;;;;;;;;;5012870;28;20204;-59
2023/01/22 11:58:52;;;;;;;12.63;11.07;;;;;;;;;;5013223;28;20206;-59
2023/01/22 12:01:26;;;;;;;32.53;23.73;;;;;;;;;;5003192;28;20295;-60
2023/01/22 12:04:05;;;;;;;12.77;11.47;;;;;;;;;;5014047;28;20204;-58
2023/01/22 12:06:40;;;;;;;10.27;9.30;;;;;;;;;;5007349;28;20525;-57
2023/01/22 12:09:09;;;;;;;9.20;8.30;;;;;;;;;;5012533;28;20228;-57
2023/01/22 12:11:49;;;;;;;11.53;10.33;;;;;;;;;;5007767;28;20208;-59
2023/01/22 12:14:28;;;;;;;11.60;10.47;;;;;;;;;;5015076;28;20451;-59
2023/01/22 12:16:59;;;;;;;12.20;11.00;;;;;;;;;;5014087;28;20410;-57
2023/01/22 12:19:39;;;;;;;9.90;8.90;;;;;;;;;;5009530;28;20335;-58
2023/01/22 12:22:08;;;;;;;9.93;9.03;;;;;;;;;;5008915;28;20208;-58
2023/01/22 12:24:37;;;;;;;10.17;9.27;;;;;;;;;;5013727;28;20507;-58
2023/01/22 12:27:08;;;;;;;12.23;11.07;;;;;;;;;;5017379;28;20227;-58
2023/01/22 12:29:38;;;;;;;10.87;9.87;;;;;;;;;;5016863;28;20219;-58
2023/01/22 12:32:09;;;;;;;10.23;9.30;;;;;;;;;;5014775;28;20204;-57
2023/01/22 12:34:39;;;;;;;12.27;10.97;;;;;;;;;;5007402;28;20227;-58
2023/01/22 12:37:07;;;;;;;22.97;19.77;;;;;;;;;;5009806;28;20200;-57
2023/01/22 12:39:36;;;;;;;17.60;15.70;;;;;;;;;;5014688;28;20207;-59
2023/01/22 12:42:09;;;;;;;14.13;12.63;;;;;;;;;;5012321;28;20200;-59
2023/01/22 12:44:46;;;;;;;11.80;10.60;;;;;;;;;;5016320;28;20200;-58
2023/01/22 12:47:17;;;;;;;15.50;13.90;;;;;;;;;;5012425;28;20219;-58
2023/01/22 12:49:48;;;;;;;13.63;12.20;;;;;;;;;;5012090;28;20205;-56
2023/01/22 12:52:26;;;;;;;13.53;11.10;;;;;;;;;;5009151;28;20204;-58
2023/01/22 12:54:54;;;;;;;42.57;16.10;;;;;;;;;;5014799;28;20231;-56
2023/01/22 12:57:25;;;;;;;24.83;14.10;;;;;;;;;;5006742;28;20208;-58
2023/01/22 12:59:53;;;;;;;15.03;12.60;;;;;;;;;;5014868;28;20197;-56
2023/01/22 13:02:22;;;;;;;12.67;11.37;;;;;;;;;;5017504;28;20210;-59
2023/01/22 13:04:49;;;;;;;11.17;10.00;;;;;;;;;;5006568;28;20209;-56
2023/01/22 13:07:21;;;;;;;11.57;10.40;;;;;;;;;;5011453;28;20208;-58
2023/01/22 13:09:49;;;;;;;14.90;12.43;;;;;;;;;;5011779;28;20236;-58
2023/01/22 13:12:25;;;;;;;16.03;13.17;;;;;;;;;;5014994;28;20212;-56
2023/01/22 13:14:53;;;;;;;13.40;11.83;;;;;;;;;;5010777;28;20216;-57
2023/01/22 13:17:21;;;;;;;18.70;14.67;;;;;;;;;;5011381;28;20239;-57
2023/01/22 13:19:50;;;;;;;11.43;10.00;;;;;;;;;;5012225;28;20200;-57
2023/01/22 13:22:18;;;;;;;10.70;9.40;;;;;;;;;;5013776;28;20308;-58
2023/01/22 13:24:49;;;;;;;11.90;10.60;;;;;;;;;;5012697;28;20240;-58
2023/01/22 13:27:22;;;;;;;13.10;11.80;;;;;;;;;;5011769;28;20204;-56
2023/01/22 13:29:50;;;;;;;9.30;8.37;;;;;;;;;;5005575;28;20207;-58
2023/01/22 13:32:19;;;;;;;10.00;8.97;;;;;;;;;;5008501;28;20197;-58
2023/01/22 13:34:46;;;;;;;9.27;8.37;;;;;;;;;;5012333;28;20231;-57
2023/01/22 13:37:21;;;;;;;8.70;7.87;;;;;;;;;;5009215;28;20356;-58
2023/01/22 13:39:48;;;;;;;10.80;8.33;;;;;;;;;;5007643;28;20208;-58
2023/01/22 13:42:16;;;;;;;9.17;8.27;;;;;;;;;;5012967;28;20204;-58
2023/01/22 13:44:46;;;;;;;9.10;8.30;;;;;;;;;;5012213;28;20208;-58
2023/01/22 13:47:25;;;;;;;11.40;10.30;;;;;;;;;;5014322;28;20209;-58
2023/01/22 13:49:52;;;;;;;14.00;12.53;;;;;;;;;;5013987;28;20204;-53
2023/01/22 13:52:20;;;;;;;11.37;9.73;;;;;;;;;;5007390;28;20204;-58
2023/01/22 13:54:49;;;;;;;10.27;9.33;;;;;;;;;;5006515;28;20216;-57
2023/01/22 13:57:17;;;;;;;9.70;8.80;;;;;;;;;;5009639;28;20201;-57
2023/01/22 13:59:52;;;;;;;9.47;8.57;;;;;;;;;;5010795;28;20201;-56
2023/01/22 14:02:22;;;;;;;10.97;9.87;;;;;;;;;;5009609;28;20224;-55
2023/01/22 14:04:50;;;;;;;10.47;9.47;;;;;;;;;;5011943;28;20508;-55
2023/01/22 14:07:24;;;;;;;15.27;13.73;;;;;;;;;;5004803;28;20200;-56
2023/01/22 14:09:51;;;;;;;10.33;9.33;;;;;;;;;;5006961;28;20264;-58
2023/01/22 14:12:19;;;;;;;10.63;9.60;;;;;;;;;;5010564;28;20201;-56
2023/01/22 14:14:46;;;;;;;12.03;10.80;;;;;;;;;;5012323;28;20235;-57
2023/01/22 14:17:27;;;;;;;11.20;10.10;;;;;;;;;;5006852;28;20216;-58
2023/01/22 14:19:54;;;;;;;12.63;11.30;;;;;;;;;;5006995;28;20200;-58
2023/01/22 14:22:22;;;;;;;9.63;8.63;;;;;;;;;;5012504;28;20204;-57
2023/01/22 14:24:51;;;;;;;10.10;9.10;;;;;;;;;;5011234;28;20196;-56
2023/01/22 14:27:18;;;;;;;9.77;8.77;;;;;;;;;;5013051;28;20238;-55
2023/01/22 14:29:45;;;;;;;11.57;10.37;;;;;;;;;;5015446;28;20200;-57
2023/01/22 14:32:12;;;;;;;10.63;9.53;;;;;;;;;;5013281;28;20433;-58
2023/01/22 14:34:41;;;;;;;9.40;8.50;;;;;;;;;;5011739;28;20224;-56
2023/01/22 14:37:08;;;;;;;9.83;8.93;;;;;;;;;;5014174;28;20204;-57
2023/01/22 14:39:36;;;;;;;10.97;9.83;;;;;;;;;;5011960;28;20236;-59